Time;durP1;ratioP1;P1;durP2;ratioP2;P2;SDS_P1;SDS_P2;PMS_P1;PMS_P2;Temp;Humidity;BMP_temperature;BMP_pressure;BME280_temperature;BME280_humidity;BME280_pressure;Samples;Min_cycle;Max_cycle;Signal;HPM_P1;HPM_P2
2022/11/11 00:01:17;;;;;;;;;;;;;;;-143.48;84.83;79942.13;5019305;28;19974;-73
2022/11/11 00:03:42;;;;;;;;;;;;;;;-143.48;85.15;79940.16;5036831;28;20054;-72
2022/11/11 00:06:09;;;;;;;;;;;;;;;-143.48;85.17;79950.06;5054877;28;20395;-72
2022/11/11 00:08:34;;;;;;;;;;;;;;;-143.48;85.31;79950.06;5036958;28;19916;-74
2022/11/11 00:11:01;;;;;;;;;;;;;;;-143.48;85.59;79950.06;5054774;28;19929;-73
2022/11/11 00:13:27;;;;;;;;;;;;;;;-143.48;85.49;79961.97;5054647;28;20380;-73
2022/11/11 00:15:52;;;;;;;;;;;;;;;-143.48;85.52;79954.03;5036792;28;19919;-73
2022/11/11 00:26:28;;;;;;;;;;;;;;;-143.48;86.06;79960.00;5054877;28;19939;-73
2022/11/11 00:28:54;;;;;;;;;;;;;;;-143.48;86.13;79963.97;5036399;28;19920;-73
2022/11/11 00:31:19;;;;;;;;;;;;;;;-143.48;86.16;79963.97;5036476;28;20364;-73
2022/11/11 00:33:44;;;;;;;;;;;;;;;-143.48;85.91;79954.03;5036480;28;19913;-72
2022/11/11 00:36:09;;;;;;;;;;;;;;;-143.48;86.22;79963.97;5036391;28;20424;-71
2022/11/11 00:38:48;;;;;;;;;;;;;;;-143.48;86.32;79956.03;5036353;28;19912;-72
2022/11/11 00:41:17;;;;;;;;;;;;;;;-143.48;86.09;79946.09;5036624;28;19917;-73
2022/11/11 00:43:44;;;;;;;;;;;;;;;-143.48;86.14;79954.03;5036318;28;19919;-72
2022/11/11 00:51:37;;;;;;;;;;;;;;;-143.48;86.50;79936.19;5054469;28;20406;-71
2022/11/11 00:54:02;;;;;;;;;;;;;;;-143.48;86.64;79944.13;5053944;28;19916;-72
2022/11/11 00:56:28;;;;;;;;;;;;;;;-143.48;87.03;79948.09;5036039;28;19920;-73
2022/11/11 00:58:53;;;;;;;;;;;;;;;-143.48;87.00;79946.09;5019585;28;20436;-74
2022/11/11 01:01:18;;;;;;;;;;;;;;;-143.48;86.95;79952.06;5035759;28;19917;-72
2022/11/11 01:03:43;;;;;;;;;;;;;;;-143.48;87.18;79948.09;5053826;28;20327;-72
2022/11/11 01:06:10;;;;;;;;;;;;;;;-143.48;87.07;79960.00;5036051;28;20031;-72
2022/11/11 01:08:35;;;;;;;;;;;;;;;-143.48;87.47;79961.97;5035782;28;19962;-73
2022/11/11 01:11:01;;;;;;;;;;;;;;;-143.48;86.93;79960.00;5035771;28;19912;-76
2022/11/11 01:13:30;;;;;;;;;;;;;;;-143.48;87.13;79971.88;5053767;28;19913;-73
2022/11/11 01:16:02;;;;;;;;;;;;;;;-143.48;87.07;79963.97;5019065;28;20272;-72
2022/11/11 01:18:28;;;;;;;;;;;;;;;-143.48;87.37;79960.00;5035151;28;19913;-73
2022/11/11 01:20:59;;;;;;;;;;;;;;;-143.48;87.26;79946.09;5034835;28;19913;-72
2022/11/11 01:23:24;;;;;;;;;;;;;;;-143.48;87.28;79950.06;5053662;28;20394;-73
2022/11/11 01:25:51;;;;;;;;;;;;;;;-143.48;87.07;79960.00;5053576;28;19952;-72
2022/11/11 01:28:16;;;;;;;;;;;;;;;-143.48;86.95;79944.13;5035740;28;20007;-72
2022/11/11 01:30:41;;;;;;;;;;;;;;;-143.48;87.07;79948.09;5035409;28;20396;-72
2022/11/11 01:33:08;;;;;;;;;;;;;;;-143.48;87.05;79965.94;5035428;28;20004;-72
2022/11/11 01:35:36;;;;;;;;;;;;;;;-143.48;87.08;79960.00;5035279;28;19959;-73
2022/11/11 01:38:02;;;;;;;;;;;;;;;-143.48;87.27;79967.91;5053663;28;19913;-73
2022/11/11 01:40:27;;;;;;;;;;;;;;;-143.48;87.09;79973.88;5035579;28;19939;-72
2022/11/11 01:43:12;;;;;;;;;;;;;;;-143.48;86.88;79967.91;5053409;28;20390;-73
2022/11/11 01:45:58;;;;;;;;;;;;;;;-143.48;87.04;79973.88;5053158;28;19919;-72
2022/11/11 01:51:19;;;;;;;;;;;;;;;-143.48;86.60;79967.91;5053735;28;20403;-73
2022/11/11 01:53:47;;;;;;;;;;;;;;;-143.48;87.03;79979.81;5035284;28;19920;-73
2022/11/11 01:56:12;;;;;;;;;;;;;;;-143.48;86.63;79963.97;5018873;28;20395;-73
2022/11/11 01:58:37;;;;;;;;;;;;;;;-143.48;86.48;79960.00;5035460;28;19917;-72
2022/11/11 02:01:03;;;;;;;;;;;;;;;-143.48;86.55;79967.91;5035210;28;19966;-74
2022/11/11 02:03:30;;;;;;;;;;;;;;;-143.48;86.90;79975.84;5035254;28;19920;-73
2022/11/11 02:05:56;;;;;;;;;;;;;;;-143.48;86.80;79963.97;5035251;28;19991;-72
2022/11/11 02:08:31;;;;;;;;;;;;;;;-143.48;87.18;79965.94;5035286;28;20376;-74
2022/11/11 02:10:59;;;;;;;;;;;;;;;-143.48;86.83;79948.09;5035220;28;20292;-73
2022/11/11 02:16:08;;;;;;;;;;;;;;;-143.48;87.63;79967.91;5053112;28;19940;-72
2022/11/11 02:18:34;;;;;;;;;;;;;;;-143.48;87.43;79967.91;5035084;28;19913;-72
2022/11/11 02:20:59;;;;;;;;;;;;;;;-143.48;87.46;79965.94;5035147;28;19920;-72
2022/11/11 02:23:28;;;;;;;;;;;;;;;-143.48;87.21;79967.91;5035254;28;19919;-72
2022/11/11 02:25:55;;;;;;;;;;;;;;;-143.48;87.31;79969.91;5035129;28;19921;-73
2022/11/11 02:28:21;;;;;;;;;;;;;;;-143.48;87.21;79963.97;5052916;28;19913;-72
2022/11/11 02:30:46;;;;;;;;;;;;;;;-143.48;87.60;79965.94;5052832;28;20355;-72
2022/11/11 02:33:11;;;;;;;;;;;;;;;-143.48;87.52;79979.81;5052934;28;19947;-72
2022/11/11 02:35:39;;;;;;;;;;;;;;;-143.48;87.75;79973.88;5034879;28;19949;-72
2022/11/11 02:38:08;;;;;;;;;;;;;;;-143.48;87.93;79977.84;5034713;28;19912;-72
2022/11/11 02:40:37;;;;;;;;;;;;;;;-143.48;87.77;79979.81;5052752;28;19913;-72
2022/11/11 02:43:03;;;;;;;;;;;;;;;-143.48;87.86;79981.81;5052256;28;19917;-73
2022/11/11 02:45:29;;;;;;;;;;;;;;;-143.48;88.01;79993.72;5034697;28;19913;-73
2022/11/11 02:47:54;;;;;;;;;;;;;;;-143.48;88.10;79987.75;5036602;28;19917;-73
2022/11/11 02:50:20;;;;;;;;;;;;;;;-143.48;88.20;79995.69;5038038;28;19913;-72
2022/11/11 02:52:45;;;;;;;;;;;;;;;-143.48;88.43;80005.63;5038289;28;19920;-72
2022/11/11 02:55:10;;;;;;;;;;;;;;;-143.48;88.53;80003.63;5056141;28;19920;-72
2022/11/11 02:57:36;;;;;;;;;;;;;;;-143.48;88.30;79997.69;5056138;28;19912;-72
2022/11/11 03:00:02;;;;;;;;;;;;;;;-143.48;87.91;79987.75;5038247;28;19913;-72
2022/11/11 03:02:27;;;;;;;;;;;;;;;-143.48;87.93;80001.66;5038051;28;20011;-73
2022/11/11 03:04:53;;;;;;;;;;;;;;;-143.48;87.74;79997.69;5056086;28;20047;-74
2022/11/11 03:07:19;;;;;;;;;;;;;;;-143.48;87.73;80003.63;5038152;28;19912;-73
2022/11/11 03:09:44;;;;;;;;;;;;;;;-143.48;87.81;80003.63;5037998;28;19913;-72
2022/11/11 03:12:09;;;;;;;;;;;;;;;-143.48;88.17;80015.53;5055452;28;19977;-73
2022/11/11 03:14:34;;;;;;;;;;;;;;;-143.48;87.91;80013.56;5037975;28;20047;-73
2022/11/11 03:19:44;;;;;;;;;;;;;;;-143.48;87.49;80009.59;5055838;28;19920;-73
2022/11/11 03:22:09;;;;;;;;;;;;;;;-143.48;87.84;80023.47;5037644;28;19917;-73
2022/11/11 03:27:18;;;;;;;;;;;;;;;-143.48;88.02;80023.47;5055647;28;19923;-73
2022/11/11 03:29:43;;;;;;;;;;;;;;;-143.48;87.89;80015.53;5037374;28;20292;-73
2022/11/11 03:32:09;;;;;;;;;;;;;;;-143.48;87.61;80011.56;5037454;28;20357;-73
2022/11/11 03:34:34;;;;;;;;;;;;;;;-143.48;87.47;80007.59;5037560;28;19919;-74
2022/11/11 03:39:43;;;;;;;;;;;;;;;-143.48;87.64;80029.44;5055670;28;19959;-73
2022/11/11 03:42:08;;;;;;;;;;;;;;;-143.48;87.65;80017.53;5037246;28;19917;-72
2022/11/11 03:44:33;;;;;;;;;;;;;;;-143.48;87.90;80039.34;5055154;28;19956;-71
2022/11/11 03:46:59;;;;;;;;;;;;;;;-143.48;87.84;80029.44;5055552;28;19927;-72
2022/11/11 03:49:24;;;;;;;;;;;;;;;-143.48;87.69;80039.34;5055236;28;19913;-73
2022/11/11 03:51:49;;;;;;;;;;;;;;;-143.48;87.81;80037.38;5037240;28;19932;-75
2022/11/11 03:54:14;;;;;;;;;;;;;;;-143.48;87.94;80033.41;5037080;28;20004;-72
2022/11/11 03:56:39;;;;;;;;;;;;;;;-143.48;87.73;80027.44;5037152;28;20014;-72
2022/11/11 03:59:05;;;;;;;;;;;;;;;-143.48;87.72;80039.34;5054690;28;19917;-73
2022/11/11 04:12:26;;;;;;;;;;;;;;;-143.48;87.78;80035.38;5055248;28;19929;-72
2022/11/11 04:17:35;;;;;;;;;;;;;;;-143.48;87.41;80023.47;5055291;28;19920;-72
2022/11/11 04:22:47;;;;;;;;;;;;;;;-143.48;87.88;80031.41;5054636;28;19924;-71
2022/11/11 04:30:40;;;;;;;;;;;;;;;-143.48;87.83;80011.56;5054366;28;19944;-71
2022/11/11 04:33:05;;;;;;;;;;;;;;;-143.48;88.21;80015.53;5036358;28;19913;-71
2022/11/11 04:35:30;;;;;;;;;;;;;;;-143.48;87.94;80007.59;5036336;28;19912;-73
2022/11/11 04:41:02;;;;;;;;;;;;;;;-143.48;87.98;80015.53;5054128;28;20321;-72
2022/11/11 04:43:25;;;;;;;;;;;;;;;-143.48;88.16;80017.53;5054645;28;20284;-73
2022/11/11 04:45:50;;;;;;;;;;;;;;;-143.48;88.21;80013.56;5036160;28;19913;-76
2022/11/11 04:48:17;;;;;;;;;;;;;;;-143.48;87.73;79997.69;5035929;28;20287;-73
2022/11/11 04:50:43;;;;;;;;;;;;;;;-143.48;87.83;79999.66;5036107;28;19972;-72
2022/11/11 04:53:14;;;;;;;;;;;;;;;-143.48;87.47;79993.72;5054420;28;19917;-72
2022/11/11 04:58:25;;;;;;;;;;;;;;;-143.48;87.86;79999.66;5054253;28;19923;-72
2022/11/11 05:00:50;;;;;;;;;;;;;;;-143.48;87.36;79989.75;5035714;28;20221;-73
2022/11/11 05:03:20;;;;;;;;;;;;;;;-143.48;87.47;79999.66;5035337;28;19929;-73
2022/11/11 05:11:14;;;;;;;;;;;;;;;-143.48;87.24;79993.72;5053422;28;19923;-72
2022/11/11 05:21:55;;;;;;;;;;;;;;;-143.48;87.05;80015.53;5053482;28;20292;-72
2022/11/11 05:27:04;;;;;;;;;;;;;;;-143.48;87.16;80019.50;5053847;28;20391;-71
2022/11/11 05:29:30;;;;;;;;;;;;;;;-143.48;87.21;80017.53;5053314;28;19925;-72
2022/11/11 05:31:55;;;;;;;;;;;;;;;-143.48;87.00;80015.53;5035419;28;20372;-72
2022/11/11 05:34:20;;;;;;;;;;;;;;;-143.48;87.10;80019.50;5035419;28;19921;-73
2022/11/11 05:36:45;;;;;;;;;;;;;;;-143.48;87.18;80031.41;5035428;28;20331;-74
2022/11/11 05:39:11;;;;;;;;;;;;;;;-143.48;87.18;80027.44;5035297;28;19964;-72
2022/11/11 05:41:36;;;;;;;;;;;;;;;-143.48;87.08;80025.47;5053144;28;20007;-72
2022/11/11 05:44:01;;;;;;;;;;;;;;;-143.48;87.20;80027.44;5035179;28;19913;-72
2022/11/11 05:46:26;;;;;;;;;;;;;;;-143.48;87.33;80035.38;5035161;28;19912;-72
2022/11/11 05:51:35;;;;;;;;;;;;;;;-143.48;87.24;80031.41;5053379;28;19936;-73
2022/11/11 05:54:00;;;;;;;;;;;;;;;-143.48;87.13;80031.41;5034683;28;19913;-73
2022/11/11 05:56:25;;;;;;;;;;;;;;;-143.48;87.23;80039.34;5034969;28;19913;-72
2022/11/11 05:58:51;;;;;;;;;;;;;;;-143.48;87.20;80051.25;5034780;28;19921;-72
2022/11/11 06:01:16;;;;;;;;;;;;;;;-143.48;87.63;80047.28;5052918;28;19923;-72
2022/11/11 06:03:41;;;;;;;;;;;;;;;-143.48;87.16;80051.25;5034582;28;20319;-72
2022/11/11 06:06:06;;;;;;;;;;;;;;;-143.48;87.12;80051.25;5052099;28;19919;-73
2022/11/11 06:08:32;;;;;;;;;;;;;;;-143.48;87.29;80059.19;5052013;28;19920;-72
2022/11/11 06:10:57;;;;;;;;;;;;;;;-143.48;87.07;80059.19;5052984;28;19913;-72
2022/11/11 06:13:22;;;;;;;;;;;;;;;-143.48;87.60;80077.03;5035128;28;20358;-72
2022/11/11 06:15:48;;;;;;;;;;;;;;;-143.48;87.30;80067.13;5052874;28;19917;-72
2022/11/11 06:18:13;;;;;;;;;;;;;;;-143.48;87.27;80077.03;5034562;28;19913;-73
2022/11/11 06:20:38;;;;;;;;;;;;;;;-143.48;87.21;80063.16;5033630;28;19995;-72
2022/11/11 06:23:04;;;;;;;;;;;;;;;-143.48;87.40;80067.13;5037795;28;19917;-72
2022/11/11 06:28:14;;;;;;;;;;;;;;;-143.48;87.05;80079.03;5056931;28;20282;-72
2022/11/11 06:30:40;;;;;;;;;;;;;;;-143.48;86.90;80090.94;5056413;28;19924;-72
2022/11/11 06:33:08;;;;;;;;;;;;;;;-143.48;86.89;80094.91;5056390;28;19913;-71
2022/11/11 06:35:34;;;;;;;;;;;;;;;-143.48;86.85;80084.97;5038455;28;19912;-72
2022/11/11 06:38:00;;;;;;;;;;;;;;;-143.48;86.18;80090.94;5038324;28;19913;-71
2022/11/11 06:40:27;;;;;;;;;;;;;;;-143.48;86.05;80083.00;5056478;28;19975;-71
2022/11/11 06:42:52;;;;;;;;;;;;;;;-143.48;86.18;80090.94;5038240;28;19916;-72
2022/11/11 06:45:17;;;;;;;;;;;;;;;-143.48;86.41;80102.84;5056328;28;20395;-72
2022/11/11 06:47:43;;;;;;;;;;;;;;;-143.48;86.61;80108.78;5038817;28;19914;-72
2022/11/11 06:50:08;;;;;;;;;;;;;;;-143.48;86.68;80110.78;5038008;28;19921;-71
2022/11/11 06:52:33;;;;;;;;;;;;;;;-143.48;86.49;80106.81;5055981;28;20011;-72
2022/11/11 06:54:58;;;;;;;;;;;;;;;-143.48;86.58;80116.72;5038131;28;19999;-71
2022/11/11 06:57:24;;;;;;;;;;;;;;;-143.48;86.96;80118.72;5038115;28;20003;-72
2022/11/11 06:59:49;;;;;;;;;;;;;;;-143.48;86.65;80114.75;5056272;28;20386;-71
2022/11/11 07:02:14;;;;;;;;;;;;;;;-143.48;86.92;80132.59;5037963;28;19916;-72
2022/11/11 07:04:39;;;;;;;;;;;;;;;-143.48;87.05;80128.63;5056502;28;20284;-71
2022/11/11 07:07:05;;;;;;;;;;;;;;;-143.48;87.26;80126.66;5038015;28;19912;-71
2022/11/11 07:09:30;;;;;;;;;;;;;;;-143.48;86.93;80128.63;5055969;28;19913;-71
2022/11/11 07:11:55;;;;;;;;;;;;;;;-143.48;86.98;80142.53;5036361;28;19982;-73
2022/11/11 07:14:20;;;;;;;;;;;;;;;-143.48;87.31;80130.63;5053884;28;19920;-72
2022/11/11 07:16:45;;;;;;;;;;;;;;;-143.48;87.03;80138.56;5035486;28;19913;-72
2022/11/11 07:19:11;;;;;;;;;;;;;;;-143.48;87.13;80126.66;5034132;28;20265;-72
2022/11/11 07:21:36;;;;;;;;;;;;;;;-143.48;86.58;80136.56;5052726;28;19971;-74
2022/11/11 07:24:01;;;;;;;;;;;;;;;-143.48;86.99;80132.59;5054040;28;19913;-72
2022/11/11 07:26:26;;;;;;;;;;;;;;;-143.48;86.62;80122.69;5054805;28;19999;-72
2022/11/11 07:28:51;;;;;;;;;;;;;;;-143.48;86.22;80116.72;5037483;28;20292;-72
2022/11/11 07:31:17;;;;;;;;;;;;;;;-143.48;86.32;80126.66;5055487;28;19912;-72
2022/11/11 07:33:42;;;;;;;;;;;;;;;-143.48;86.16;80132.59;5036831;28;19948;-72
2022/11/11 07:36:07;;;;;;;;;;;;;;;-143.48;86.78;80118.72;5037330;28;19943;-72
2022/11/11 07:38:32;;;;;;;;;;;;;;;-143.48;86.14;80126.66;5055269;28;19996;-72
2022/11/11 07:40:58;;;;;;;;;;;;;;;-143.48;85.98;80128.63;5037298;28;19970;-72
2022/11/11 07:43:24;;;;;;;;;;;;;;;-143.48;85.97;80116.72;5037190;28;19982;-72
2022/11/11 07:45:49;;;;;;;;;;;;;;;-143.48;85.81;80124.66;5037295;28;19919;-72
2022/11/11 07:48:14;;;;;;;;;;;;;;;-143.48;85.69;80110.78;5037196;28;19917;-72
2022/11/11 07:50:40;;;;;;;;;;;;;;;-143.48;85.05;80116.72;5054677;28;20372;-72
2022/11/11 07:53:05;;;;;;;;;;;;;;;-143.48;85.14;80110.78;5037064;28;19920;-72
2022/11/11 07:55:30;;;;;;;;;;;;;;;-143.48;85.41;80118.72;5054440;28;19917;-72
2022/11/11 07:57:56;;;;;;;;;;;;;;;-143.48;85.30;80118.72;5054370;28;19967;-72
2022/11/11 08:00:22;;;;;;;;;;;;;;;-143.48;84.84;80122.69;5036469;28;19924;-72
2022/11/11 08:02:47;;;;;;;;;;;;;;;-143.48;85.10;80124.66;5036869;28;19916;-72
2022/11/11 08:05:13;;;;;;;;;;;;;;;-143.48;85.52;80142.53;5036920;28;19932;-72
2022/11/11 08:07:38;;;;;;;;;;;;;;;-143.48;86.00;80132.59;5054780;28;19916;-72
2022/11/11 08:10:03;;;;;;;;;;;;;;;-143.48;85.27;80130.63;5054731;28;20003;-75
2022/11/11 08:15:12;;;;;;;;;;;;;;;-143.48;85.10;80138.56;5054800;28;19920;-72
2022/11/11 08:17:38;;;;;;;;;;;;;;;-143.48;84.99;80128.63;5036424;28;20318;-72
2022/11/11 08:20:04;;;;;;;;;;;;;;;-143.48;84.28;80120.69;5056952;28;19913;-73
2022/11/11 08:22:34;;;;;;;;;;;;;;;-143.48;83.86;80128.63;5036438;28;19970;-73
2022/11/11 08:24:59;;;;;;;;;;;;;;;-143.48;83.44;80130.63;5054306;28;19916;-74
2022/11/11 08:27:24;;;;;;;;;;;;;;;-143.48;83.73;80136.56;5036689;28;19920;-72
2022/11/11 08:29:49;;;;;;;;;;;;;;;-143.48;84.37;80136.56;5036228;28;20335;-72
2022/11/11 08:32:14;;;;;;;;;;;;;;;-143.48;83.20;80110.78;5036321;28;20323;-72
2022/11/11 08:34:40;;;;;;;;;;;;;;;-143.48;83.64;80112.75;5036719;28;19913;-72
2022/11/11 08:37:05;;;;;;;;;;;;;;;-143.48;81.23;80104.81;5054176;28;19913;-73
2022/11/11 08:39:30;;;;;;;;;;;;;;;-143.48;82.39;80102.84;5054067;28;19920;-73
2022/11/11 08:41:55;;;;;;;;;;;;;;;-143.48;81.89;80090.94;5036074;28;20019;-73
2022/11/11 08:44:21;;;;;;;;;;;;;;;-143.48;82.62;80102.84;5035855;28;19912;-72
2022/11/11 08:46:46;;;;;;;;;;;;;;;-143.48;81.10;80067.13;5036010;28;19992;-72
2022/11/11 08:49:12;;;;;;;;;;;;;;;-143.48;80.00;80059.19;5035019;28;19919;-72
2022/11/11 08:51:37;;;;;;;;;;;;;;;-143.48;81.58;80102.84;5035991;28;19920;-72
2022/11/11 08:54:02;;;;;;;;;;;;;;;-143.48;82.17;80122.69;5035181;28;19913;-73
2022/11/11 08:56:27;;;;;;;;;;;;;;;-143.48;82.70;80120.69;5035555;28;19916;-72
2022/11/11 08:58:52;;;;;;;;;;;;;;;-143.48;83.18;80134.59;5035631;28;19951;-75
2022/11/11 09:01:18;;;;;;;;;;;;;;;-143.48;82.49;80126.66;5035599;28;20287;-73
2022/11/11 09:03:44;;;;;;;;;;;;;;;-143.48;82.83;80138.56;5035843;28;19919;-73
2022/11/11 09:06:10;;;;;;;;;;;;;;;-143.48;82.94;80148.47;5053564;28;19912;-71
2022/11/11 09:08:36;;;;;;;;;;;;;;;-143.48;83.02;80136.56;5053849;28;20284;-72
2022/11/11 09:11:01;;;;;;;;;;;;;;;-143.48;83.36;80138.56;5053042;28;19967;-73
2022/11/11 09:13:26;;;;;;;;;;;;;;;-143.48;82.99;80154.44;5034359;28;19963;-73
2022/11/11 09:15:53;;;;;;;;;;;;;;;-143.48;83.27;80142.53;5034180;28;20004;-73
2022/11/11 09:18:18;;;;;;;;;;;;;;;-143.48;83.04;80138.56;5034051;28;19917;-74
2022/11/11 09:20:43;;;;;;;;;;;;;;;-143.48;81.62;80120.69;5032964;28;19920;-74
2022/11/11 09:23:08;;;;;;;;;;;;;;;-143.48;81.93;80112.75;5033006;28;20364;-73
2022/11/11 09:25:34;;;;;;;;;;;;;;;-143.48;81.70;80132.59;5051840;28;19913;-73
2022/11/11 09:28:00;;;;;;;;;;;;;;;-143.48;82.08;80128.63;5053284;28;19978;-72
2022/11/11 09:30:26;;;;;;;;;;;;;;;-143.48;83.10;80166.31;5034123;28;19932;-72
2022/11/11 09:32:51;;;;;;;;;;;;;;;-143.48;83.35;80146.50;5053209;28;19913;-73
2022/11/11 09:35:16;;;;;;;;;;;;;;;-143.48;82.13;80124.66;5053113;28;20299;-74
2022/11/11 09:37:42;;;;;;;;;;;;;;;-143.48;82.46;80162.34;5035504;28;19920;-74
2022/11/11 09:40:15;;;;;;;;;;;;;;;-143.48;82.52;80148.47;5034282;28;19923;-75
2022/11/11 09:42:43;;;;;;;;;;;;;;;-143.48;82.48;80138.56;5051548;28;19917;-74
2022/11/11 09:45:31;;;;;;;;;;;;;;;-143.48;81.94;80120.69;5051351;28;20340;-75
2022/11/11 09:48:02;;;;;;;;;;;;;;;-143.48;82.07;80132.59;4998209;28;19912;-73
2022/11/11 09:50:30;;;;;;;;;;;;;;;-143.48;82.70;80150.47;5033439;28;19963;-75
2022/11/11 09:53:12;;;;;;;;;;;;;;;-143.48;82.77;80118.72;5051751;28;20393;-73
2022/11/11 09:55:43;;;;;;;;;;;;;;;-143.48;81.40;80134.59;5052602;28;19917;-74
2022/11/11 09:58:14;;;;;;;;;;;;;;;-143.48;82.25;80118.72;5037898;28;19916;-73
2022/11/11 10:00:42;;;;;;;;;;;;;;;-143.48;81.08;80120.69;5039080;28;20283;-73
2022/11/11 10:03:14;;;;;;;;;;;;;;;-143.48;81.57;80124.66;5056896;28;19923;-73
2022/11/11 10:05:42;;;;;;;;;;;;;;;-143.48;81.39;80116.72;5039115;28;19995;-74
2022/11/11 10:08:23;;;;;;;;;;;;;;;-143.48;81.39;80102.84;5039002;28;19913;-73
2022/11/11 10:10:49;;;;;;;;;;;;;;;-143.48;81.05;80075.06;5057130;28;19921;-74
2022/11/11 10:13:15;;;;;;;;;;;;;;;-143.48;80.63;80086.97;5038373;28;19913;-73
2022/11/11 10:15:59;;;;;;;;;;;;;;;-143.48;80.08;80079.03;5038851;28;20389;-72
2022/11/11 10:18:33;;;;;;;;;;;;;;;-143.48;79.71;80083.00;5056676;28;20368;-73
2022/11/11 10:20:58;;;;;;;;;;;;;;;-143.48;80.20;80083.00;5056057;28;19962;-73
2022/11/11 10:23:35;;;;;;;;;;;;;;;-143.48;79.41;80075.06;5038848;28;19948;-74
2022/11/11 10:26:03;;;;;;;;;;;;;;;-143.48;79.26;80104.81;5038790;28;19912;-74
2022/11/11 10:28:30;;;;;;;;;;;;;;;-143.48;79.87;80106.81;5038589;28;20441;-74
2022/11/11 10:30:55;;;;;;;;;;;;;;;-143.48;79.62;80116.72;5038415;28;20007;-73
2022/11/11 10:33:26;;;;;;;;;;;;;;;-143.48;80.05;80110.78;5056679;28;20382;-72
2022/11/11 10:35:52;;;;;;;;;;;;;;;-143.48;79.66;80106.81;5056519;28;20058;-73
2022/11/11 10:38:29;;;;;;;;;;;;;;;-143.48;80.31;80106.81;5056481;28;19950;-73
2022/11/11 10:40:58;;;;;;;;;;;;;;;-143.48;79.85;80110.78;5056499;28;20016;-72
2022/11/11 10:43:27;;;;;;;;;;;;;;;-143.48;80.17;80098.88;5038484;28;19917;-72
2022/11/11 10:45:55;;;;;;;;;;;;;;;-143.48;80.14;80120.69;5038544;28;20376;-72
2022/11/11 10:48:24;;;;;;;;;;;;;;;-143.48;80.21;80102.84;5038350;28;19913;-72
2022/11/11 10:50:52;;;;;;;;;;;;;;;-143.48;80.28;80083.00;5038381;28;19913;-72
2022/11/11 10:53:21;;;;;;;;;;;;;;;-143.48;79.58;80090.94;5057077;28;20015;-72
2022/11/11 10:56:04;;;;;;;;;;;;;;;-143.48;79.99;80098.88;5056078;28;19919;-74
2022/11/11 10:58:50;;;;;;;;;;;;;;;-143.48;79.57;80092.91;5038283;28;19913;-73
2022/11/11 11:01:19;;;;;;;;;;;;;;;-143.48;78.99;80075.06;5026376;28;19924;-75
2022/11/11 11:03:49;;;;;;;;;;;;;;;-143.48;78.41;80043.31;5037064;28;19913;-74
2022/11/11 11:06:21;;;;;;;;;;;;;;;-143.48;78.46;80045.31;5020220;28;19990;-74
2022/11/11 11:08:48;;;;;;;;;;;;;;;-143.48;78.63;80057.19;5036111;28;19920;-75
2022/11/11 11:11:18;;;;;;;;;;;;;;;-143.48;79.80;80043.31;5060962;28;20420;-73
2022/11/11 11:13:49;;;;;;;;;;;;;;;-143.48;78.72;80047.28;5036966;28;19913;-73
2022/11/11 11:16:43;;;;;;;;;;;;;;;-143.48;78.35;80077.03;5055689;28;19979;-74
2022/11/11 11:19:15;;;;;;;;;;;;;;;-143.48;79.66;80079.03;5032999;28;20411;-74
2022/11/11 11:21:51;;;;;;;;;;;;;;;-143.48;78.46;80055.22;5037663;28;20348;-74
2022/11/11 11:24:26;;;;;;;;;;;;;;;-143.48;78.45;80053.22;5055756;28;19920;-74
2022/11/11 11:26:56;;;;;;;;;;;;;;;-143.48;78.12;80023.47;5039446;28;19913;-74
2022/11/11 11:29:41;;;;;;;;;;;;;;;-143.48;77.06;79991.72;5056472;28;20020;-73
2022/11/11 11:32:09;;;;;;;;;;;;;;;-143.48;74.41;79942.13;5037452;28;19978;-74
2022/11/11 11:34:51;;;;;;;;;;;;;;;-143.48;74.82;79977.84;5055116;28;20293;-74
2022/11/11 11:37:17;;;;;;;;;;;;;;;-143.48;77.00;80039.34;5037286;28;20011;-74
2022/11/11 11:39:43;;;;;;;;;;;;;;;-143.48;77.09;80001.66;5036883;28;19958;-77
2022/11/11 11:42:25;;;;;;;;;;;;;;;-143.48;76.01;80001.66;5036980;28;19921;-76
2022/11/11 11:44:50;;;;;;;;;;;;;;;-143.48;76.87;80011.56;5036865;28;19913;-77
2022/11/11 11:47:16;;;;;;;;;;;;;;;-143.48;76.08;79987.75;5054243;28;19919;-75
2022/11/11 11:49:47;;;;;;;;;;;;;;;-143.48;75.46;79983.78;5037283;28;19913;-75
2022/11/11 11:52:12;;;;;;;;;;;;;;;-143.48;70.46;79815.16;5037344;28;19919;-75
2022/11/11 11:54:50;;;;;;;;;;;;;;;-143.48;72.71;79904.44;5036015;28;20015;-75
2022/11/11 11:57:18;;;;;;;;;;;;;;;-143.48;71.66;79902.44;5039164;28;19917;-75
2022/11/11 11:59:55;;;;;;;;;;;;;;;-143.48;74.60;79965.94;5062943;28;19959;-74
2022/11/11 12:02:30;;;;;;;;;;;;;;;-143.48;73.04;79896.50;5034075;28;20379;-77
2022/11/11 12:05:14;;;;;;;;;;;;;;;-143.48;70.60;79850.88;5034763;28;19913;-74
2022/11/11 12:07:58;;;;;;;;;;;;;;;-143.48;71.84;79890.56;5034221;28;19999;-78
2022/11/11 12:10:29;;;;;;;;;;;;;;;-143.48;69.41;79835.00;5035873;28;20372;-76
2022/11/11 12:13:01;;;;;;;;;;;;;;;-143.48;72.51;79920.31;5036209;28;19924;-74
2022/11/11 12:15:35;;;;;;;;;;;;;;;-143.48;68.86;79795.31;5038743;28;20022;-73
2022/11/11 12:18:06;;;;;;;;;;;;;;;-143.48;65.81;79706.03;5038511;28;19919;-74
2022/11/11 12:20:58;;;;;;;;;;;;;;;-143.48;63.98;79662.41;5037230;28;19959;-73
2022/11/11 12:23:26;;;;;;;;;;;;;;;-143.48;62.09;79575.09;5034550;28;19921;-75
2022/11/11 12:25:51;;;;;;;;;;;;;;;-143.48;61.10;79555.28;5036687;28;20292;-74
2022/11/11 12:28:19;;;;;;;;;;;;;;;-143.48;59.36;79513.63;5052545;28;19917;-75
2022/11/11 12:31:05;;;;;;;;;;;;;;;-143.48;60.62;79569.16;5051385;28;20355;-77
2022/11/11 12:33:30;;;;;;;;;;;;;;;-143.48;61.37;79620.75;5036829;28;20011;-75
2022/11/11 12:35:58;;;;;;;;;;;;;;;-143.48;64.16;79706.03;5035848;28;19956;-74
2022/11/11 12:38:29;;;;;;;;;;;;;;;-143.48;66.68;79761.59;5035877;28;20256;-77
2022/11/11 12:41:04;;;;;;;;;;;;;;;-143.48;66.69;79745.72;5036404;28;19967;-73
2022/11/11 12:43:39;;;;;;;;;;;;;;;-143.48;67.00;79715.97;5052836;28;19920;-74
2022/11/11 12:46:09;;;;;;;;;;;;;;;-143.48;66.20;79721.91;5053397;28;19963;-73
2022/11/11 12:48:46;;;;;;;;;;;;;;;-143.48;67.83;79777.47;5053565;28;19944;-72
2022/11/11 12:51:20;;;;;;;;;;;;;;;-143.48;68.11;79767.53;5035612;28;19912;-73
2022/11/11 12:53:53;;;;;;;;;;;;;;;-143.48;67.71;79755.63;5036572;28;19913;-74
2022/11/11 12:56:37;;;;;;;;;;;;;;;-143.48;68.29;79767.53;5053226;28;19917;-73
2022/11/11 12:59:23;;;;;;;;;;;;;;;-143.48;67.56;79745.72;5035667;28;19913;-73
2022/11/11 13:02:01;;;;;;;;;;;;;;;-143.48;67.23;79747.69;5053374;28;19925;-74
2022/11/11 13:04:28;;;;;;;;;;;;;;;-143.48;67.64;79745.72;5035296;28;19939;-74
2022/11/11 13:07:08;;;;;;;;;;;;;;;-143.48;66.54;79725.88;5035432;28;19992;-73
2022/11/11 13:09:52;;;;;;;;;;;;;;;-143.48;67.52;79729.84;5037236;28;19947;-73
2022/11/11 13:12:20;;;;;;;;;;;;;;;-143.48;67.24;79751.66;5053610;28;19913;-74
2022/11/11 13:14:54;;;;;;;;;;;;;;;-143.48;67.67;79749.69;5035864;28;20248;-74
2022/11/11 13:17:20;;;;;;;;;;;;;;;-143.48;67.23;79733.81;5035868;28;19913;-74
2022/11/11 13:19:58;;;;;;;;;;;;;;;-143.48;67.26;79727.88;5053716;28;20428;-75
2022/11/11 13:22:30;;;;;;;;;;;;;;;-143.48;67.43;79721.91;5035760;28;20021;-75
2022/11/11 13:24:57;;;;;;;;;;;;;;;-143.48;66.65;79696.13;5036017;28;19920;-75
2022/11/11 13:27:28;;;;;;;;;;;;;;;-143.48;67.23;79743.75;5035603;28;20046;-74
2022/11/11 13:30:02;;;;;;;;;;;;;;;-143.48;67.60;79721.91;5035583;28;19921;-74
2022/11/11 13:32:46;;;;;;;;;;;;;;;-143.48;67.57;79723.91;5035012;28;19932;-75
2022/11/11 13:35:25;;;;;;;;;;;;;;;-143.48;66.97;79713.97;5036418;28;19912;-77
2022/11/11 13:37:50;;;;;;;;;;;;;;;-143.48;68.72;79761.59;5035640;28;19935;-74
2022/11/11 13:40:25;;;;;;;;;;;;;;;-143.48;68.44;79757.63;5035799;28;19913;-73
2022/11/11 13:42:52;;;;;;;;;;;;;;;-143.48;68.53;79763.56;5055355;28;19924;-74
2022/11/11 13:45:29;;;;;;;;;;;;;;;-143.48;68.51;79749.69;5035334;28;20007;-77
2022/11/11 13:47:55;;;;;;;;;;;;;;;-143.48;68.56;79737.78;5035525;28;19916;-75
2022/11/11 13:50:28;;;;;;;;;;;;;;;-143.48;68.64;79721.91;5035770;28;20327;-74
2022/11/11 13:52:53;;;;;;;;;;;;;;;-143.48;67.68;79739.78;5035278;28;19920;-73